CheckWX is a tool to help pilots better visualize weather data.  It is not intended as a substitute for an official pre-flight weather briefing.

17:51:14 UTC

KCOE TAF
Coeur D'alene - Pappy Boyington Field Airport
Coeur D'alene, Idaho, USA
KCOE 141740Z 1418/1518 24005KT P6SM -SHSN OVC020 FM142000 24005KT P6SM VCSH OVC025 FM150600 VRB03KT P6SM OVC015 FM151200 VRB02KT 4SM BR OVC008

Dec-14@
18:00 UTC

Dec-14 @ 18:00 UTC

Dec-14@
20:00 UTC

Dec-14 @ 20:00 UTC

KCOE 141740Z 1418/1518 24005KT P6SM -SHSN OVC020
Wind
  • 240° at 5 KTS
Conditions
Light Snow
Cloud Levels
  • Overcast at 2,000' AGL

Dec-14@
20:00 UTC

Dec-14 @ 20:00 UTC

Dec-15@
06:00 UTC

Dec-15 @ 06:00 UTC

FM142000 24005KT P6SM VCSH OVC025

From

From Standard forecast or significant change

Wind
  • 240° at 5 KTS
Cloud Levels
  • Overcast at 2,500' AGL

Dec-15@
06:00 UTC

Dec-15 @ 06:00 UTC

Dec-15@
12:00 UTC

Dec-15 @ 12:00 UTC

FM150600 VRB03KT P6SM OVC015

From

From Standard forecast or significant change

Wind
  • Variable at 3 KTS
Cloud Levels
  • Overcast at 1,500' AGL

Dec-15@
12:00 UTC

Dec-15 @ 12:00 UTC

Dec-15@
18:00 UTC

Dec-15 @ 18:00 UTC

FM151200 VRB02KT 4SM BR OVC008

From

From Standard forecast or significant change

Wind
  • Variable at 2 KTS
Conditions
Mist
Cloud Levels
  • Overcast at 800' AGL